sensor_id;sensor_type;location;lat;lon;timestamp;P1;durP1;ratioP1;P2;durP2;ratioP2
36551;SDS011;22559;54.176;12.102;2023-02-02T00:00:12;5.50;;;2.33;;
36551;SDS011;22559;54.176;12.102;2023-02-02T00:02:38;11.83;;;3.57;;
36551;SDS011;22559;54.176;12.102;2023-02-02T00:05:03;6.97;;;2.83;;
36551;SDS011;22559;54.176;12.102;2023-02-02T00:07:29;9.20;;;2.80;;
36551;SDS011;22559;54.176;12.102;2023-02-02T00:09:55;7.63;;;2.43;;
36551;SDS011;22559;54.176;12.102;2023-02-02T00:12:20;9.73;;;3.10;;
36551;SDS011;22559;54.176;12.102;2023-02-02T00:14:46;14.77;;;2.73;;
36551;SDS011;22559;54.176;12.102;2023-02-02T00:17:12;10.63;;;3.17;;
36551;SDS011;22559;54.176;12.102;2023-02-02T00:19:37;8.07;;;2.73;;
36551;SDS011;22559;54.176;12.102;2023-02-02T00:22:03;8.70;;;2.93;;
36551;SDS011;22559;54.176;12.102;2023-02-02T00:24:28;11.63;;;2.77;;
36551;SDS011;22559;54.176;12.102;2023-02-02T00:26:55;10.43;;;2.47;;
36551;SDS011;22559;54.176;12.102;2023-02-02T00:29:23;5.70;;;2.60;;
36551;SDS011;22559;54.176;12.102;2023-02-02T00:31:51;7.43;;;2.70;;
36551;SDS011;22559;54.176;12.102;2023-02-02T00:34:18;11.57;;;2.93;;
36551;SDS011;22559;54.176;12.102;2023-02-02T00:36:44;9.63;;;2.87;;
36551;SDS011;22559;54.176;12.102;2023-02-02T00:39:15;11.97;;;2.80;;
36551;SDS011;22559;54.176;12.102;2023-02-02T00:41:43;10.67;;;2.77;;
36551;SDS011;22559;54.176;12.102;2023-02-02T00:44:10;14.60;;;3.00;;
36551;SDS011;22559;54.176;12.102;2023-02-02T00:47:07;9.23;;;2.50;;
36551;SDS011;22559;54.176;12.102;2023-02-02T00:49:33;7.57;;;3.23;;
36551;SDS011;22559;54.176;12.102;2023-02-02T00:51:59;10.53;;;3.37;;
36551;SDS011;22559;54.176;12.102;2023-02-02T00:54:25;11.30;;;2.87;;
36551;SDS011;22559;54.176;12.102;2023-02-02T00:56:50;10.43;;;2.63;;
36551;SDS011;22559;54.176;12.102;2023-02-02T00:59:16;10.93;;;3.50;;
36551;SDS011;22559;54.176;12.102;2023-02-02T01:01:42;11.67;;;2.77;;
36551;SDS011;22559;54.176;12.102;2023-02-02T01:04:07;7.00;;;2.50;;
36551;SDS011;22559;54.176;12.102;2023-02-02T01:06:33;12.93;;;3.10;;
36551;SDS011;22559;54.176;12.102;2023-02-02T01:08:59;9.00;;;2.83;;
36551;SDS011;22559;54.176;12.102;2023-02-02T01:11:24;14.97;;;2.93;;
36551;SDS011;22559;54.176;12.102;2023-02-02T01:13:50;9.37;;;2.90;;
36551;SDS011;22559;54.176;12.102;2023-02-02T01:16:16;10.80;;;3.33;;
36551;SDS011;22559;54.176;12.102;2023-02-02T01:18:41;12.13;;;3.40;;
36551;SDS011;22559;54.176;12.102;2023-02-02T01:21:08;7.03;;;2.73;;
36551;SDS011;22559;54.176;12.102;2023-02-02T01:23:36;15.00;;;3.17;;
36551;SDS011;22559;54.176;12.102;2023-02-02T01:26:04;9.33;;;3.53;;
36551;SDS011;22559;54.176;12.102;2023-02-02T01:28:32;11.17;;;2.73;;
36551;SDS011;22559;54.176;12.102;2023-02-02T01:31:00;11.30;;;3.17;;
36551;SDS011;22559;54.176;12.102;2023-02-02T01:33:31;10.80;;;3.37;;
36551;SDS011;22559;54.176;12.102;2023-02-02T01:35:56;8.87;;;2.87;;
36551;SDS011;22559;54.176;12.102;2023-02-02T01:38:22;9.30;;;2.57;;
36551;SDS011;22559;54.176;12.102;2023-02-02T01:40:52;6.33;;;2.73;;
36551;SDS011;22559;54.176;12.102;2023-02-02T01:43:23;4.67;;;2.73;;
36551;SDS011;22559;54.176;12.102;2023-02-02T01:45:54;11.97;;;2.57;;
36551;SDS011;22559;54.176;12.102;2023-02-02T01:48:23;9.33;;;3.03;;
36551;SDS011;22559;54.176;12.102;2023-02-02T01:50:52;6.43;;;3.03;;
36551;SDS011;22559;54.176;12.102;2023-02-02T01:53:21;9.30;;;2.60;;
36551;SDS011;22559;54.176;12.102;2023-02-02T01:55:48;11.80;;;3.17;;
36551;SDS011;22559;54.176;12.102;2023-02-02T02:00:45;8.40;;;3.33;;
36551;SDS011;22559;54.176;12.102;2023-02-02T02:03:11;9.60;;;3.23;;
36551;SDS011;22559;54.176;12.102;2023-02-02T02:05:41;11.93;;;3.17;;
36551;SDS011;22559;54.176;12.102;2023-02-02T02:08:21;6.30;;;3.27;;
36551;SDS011;22559;54.176;12.102;2023-02-02T02:11:03;11.23;;;2.90;;
36551;SDS011;22559;54.176;12.102;2023-02-02T02:13:29;7.20;;;3.17;;
36551;SDS011;22559;54.176;12.102;2023-02-02T02:37:22;8.23;;;2.30;;
36551;SDS011;22559;54.176;12.102;2023-02-02T02:39:56;3.47;;;2.33;;
36551;SDS011;22559;54.176;12.102;2023-02-02T02:42:27;7.20;;;3.00;;
36551;SDS011;22559;54.176;12.102;2023-02-02T02:44:58;9.77;;;3.07;;
36551;SDS011;22559;54.176;12.102;2023-02-02T02:47:27;5.47;;;2.60;;
36551;SDS011;22559;54.176;12.102;2023-02-02T02:49:55;4.57;;;2.43;;
36551;SDS011;22559;54.176;12.102;2023-02-02T02:52:21;8.77;;;2.40;;
36551;SDS011;22559;54.176;12.102;2023-02-02T02:54:47;6.20;;;3.07;;
36551;SDS011;22559;54.176;12.102;2023-02-02T03:05:12;8.60;;;3.23;;
36551;SDS011;22559;54.176;12.102;2023-02-02T03:07:48;14.80;;;3.50;;
36551;SDS011;22559;54.176;12.102;2023-02-02T03:10:19;14.07;;;3.10;;
36551;SDS011;22559;54.176;12.102;2023-02-02T03:12:50;8.67;;;2.53;;
36551;SDS011;22559;54.176;12.102;2023-02-02T03:15:17;7.03;;;2.77;;
36551;SDS011;22559;54.176;12.102;2023-02-02T03:17:43;5.50;;;2.90;;
36551;SDS011;22559;54.176;12.102;2023-02-02T03:20:11;14.77;;;3.90;;
36551;SDS011;22559;54.176;12.102;2023-02-02T03:22:37;9.40;;;2.80;;
36551;SDS011;22559;54.176;12.102;2023-02-02T03:25:03;4.50;;;2.27;;
36551;SDS011;22559;54.176;12.102;2023-02-02T03:27:30;9.80;;;2.77;;
36551;SDS011;22559;54.176;12.102;2023-02-02T03:29:56;7.60;;;3.07;;
36551;SDS011;22559;54.176;12.102;2023-02-02T03:32:22;8.23;;;2.90;;
36551;SDS011;22559;54.176;12.102;2023-02-02T03:34:48;9.27;;;2.83;;
36551;SDS011;22559;54.176;12.102;2023-02-02T03:37:13;8.20;;;2.43;;
36551;SDS011;22559;54.176;12.102;2023-02-02T03:39:39;4.87;;;2.47;;
36551;SDS011;22559;54.176;12.102;2023-02-02T03:42:05;9.50;;;2.73;;
36551;SDS011;22559;54.176;12.102;2023-02-02T03:44:30;7.33;;;2.77;;
36551;SDS011;22559;54.176;12.102;2023-02-02T03:46:56;6.30;;;2.47;;
36551;SDS011;22559;54.176;12.102;2023-02-02T03:49:21;8.67;;;2.80;;
36551;SDS011;22559;54.176;12.102;2023-02-02T03:51:47;5.83;;;2.47;;
36551;SDS011;22559;54.176;12.102;2023-02-02T03:54:13;8.43;;;2.63;;
36551;SDS011;22559;54.176;12.102;2023-02-02T03:56:39;9.30;;;2.33;;
36551;SDS011;22559;54.176;12.102;2023-02-02T03:59:04;6.27;;;2.70;;
36551;SDS011;22559;54.176;12.102;2023-02-02T04:01:30;7.27;;;2.70;;
36551;SDS011;22559;54.176;12.102;2023-02-02T04:03:56;11.10;;;2.53;;
36551;SDS011;22559;54.176;12.102;2023-02-02T04:06:22;10.07;;;2.83;;
36551;SDS011;22559;54.176;12.102;2023-02-02T04:08:48;9.63;;;2.90;;
36551;SDS011;22559;54.176;12.102;2023-02-02T04:11:14;7.23;;;2.57;;
36551;SDS011;22559;54.176;12.102;2023-02-02T04:13:40;6.60;;;2.43;;
36551;SDS011;22559;54.176;12.102;2023-02-02T04:16:07;5.20;;;2.13;;
36551;SDS011;22559;54.176;12.102;2023-02-02T04:18:33;6.77;;;2.60;;
36551;SDS011;22559;54.176;12.102;2023-02-02T04:21:02;10.37;;;3.10;;
36551;SDS011;22559;54.176;12.102;2023-02-02T04:23:29;9.67;;;3.20;;
36551;SDS011;22559;54.176;12.102;2023-02-02T04:25:55;7.13;;;2.70;;
36551;SDS011;22559;54.176;12.102;2023-02-02T04:28:21;8.47;;;2.33;;
36551;SDS011;22559;54.176;12.102;2023-02-02T04:30:50;8.63;;;2.87;;
36551;SDS011;22559;54.176;12.102;2023-02-02T04:33:17;6.80;;;2.30;;
36551;SDS011;22559;54.176;12.102;2023-02-02T04:35:43;7.63;;;2.60;;
36551;SDS011;22559;54.176;12.102;2023-02-02T04:38:08;6.57;;;4.37;;
36551;SDS011;22559;54.176;12.102;2023-02-02T04:40:41;5.43;;;2.57;;
36551;SDS011;22559;54.176;12.102;2023-02-02T04:43:08;5.23;;;2.17;;
36551;SDS011;22559;54.176;12.102;2023-02-02T04:45:34;19.23;;;10.30;;
36551;SDS011;22559;54.176;12.102;2023-02-02T04:48:00;17.67;;;8.67;;
36551;SDS011;22559;54.176;12.102;2023-02-02T04:50:26;6.93;;;2.40;;
36551;SDS011;22559;54.176;12.102;2023-02-02T04:52:52;8.53;;;2.30;;
36551;SDS011;22559;54.176;12.102;2023-02-02T04:55:18;10.63;;;2.97;;
36551;SDS011;22559;54.176;12.102;2023-02-02T04:57:43;7.27;;;2.77;;
36551;SDS011;22559;54.176;12.102;2023-02-02T05:00:09;5.00;;;2.43;;
36551;SDS011;22559;54.176;12.102;2023-02-02T05:02:39;9.03;;;2.67;;
36551;SDS011;22559;54.176;12.102;2023-02-02T05:05:06;8.97;;;2.50;;
36551;SDS011;22559;54.176;12.102;2023-02-02T05:07:34;4.03;;;2.33;;
36551;SDS011;22559;54.176;12.102;2023-02-02T05:10:00;8.67;;;2.57;;
36551;SDS011;22559;54.176;12.102;2023-02-02T05:12:26;6.37;;;2.27;;
36551;SDS011;22559;54.176;12.102;2023-02-02T05:14:51;2.30;;;2.00;;
36551;SDS011;22559;54.176;12.102;2023-02-02T05:17:17;8.73;;;2.57;;
36551;SDS011;22559;54.176;12.102;2023-02-02T05:19:43;7.57;;;3.03;;
36551;SDS011;22559;54.176;12.102;2023-02-02T05:22:11;7.00;;;2.77;;
36551;SDS011;22559;54.176;12.102;2023-02-02T05:24:37;8.37;;;2.37;;
36551;SDS011;22559;54.176;12.102;2023-02-02T05:27:03;6.00;;;2.87;;
36551;SDS011;22559;54.176;12.102;2023-02-02T05:29:29;7.17;;;2.70;;
36551;SDS011;22559;54.176;12.102;2023-02-02T05:31:55;3.07;;;2.10;;
36551;SDS011;22559;54.176;12.102;2023-02-02T05:34:21;8.37;;;2.50;;
36551;SDS011;22559;54.176;12.102;2023-02-02T05:36:47;4.93;;;2.57;;
36551;SDS011;22559;54.176;12.102;2023-02-02T05:39:13;10.13;;;2.80;;
36551;SDS011;22559;54.176;12.102;2023-02-02T05:41:39;7.97;;;3.17;;
36551;SDS011;22559;54.176;12.102;2023-02-02T05:44:05;8.33;;;2.40;;
36551;SDS011;22559;54.176;12.102;2023-02-02T05:46:31;8.00;;;2.50;;
36551;SDS011;22559;54.176;12.102;2023-02-02T05:48:56;6.80;;;2.87;;
36551;SDS011;22559;54.176;12.102;2023-02-02T05:51:30;8.27;;;2.60;;
36551;SDS011;22559;54.176;12.102;2023-02-02T05:53:58;9.83;;;2.67;;
36551;SDS011;22559;54.176;12.102;2023-02-02T05:56:24;8.87;;;2.30;;
36551;SDS011;22559;54.176;12.102;2023-02-02T05:58:49;8.97;;;2.60;;
36551;SDS011;22559;54.176;12.102;2023-02-02T06:01:16;9.27;;;2.80;;
36551;SDS011;22559;54.176;12.102;2023-02-02T06:03:43;12.43;;;2.57;;
36551;SDS011;22559;54.176;12.102;2023-02-02T06:06:08;4.30;;;2.33;;
36551;SDS011;22559;54.176;12.102;2023-02-02T06:08:34;6.23;;;2.50;;
36551;SDS011;22559;54.176;12.102;2023-02-02T06:11:10;7.37;;;2.90;;
36551;SDS011;22559;54.176;12.102;2023-02-02T06:13:36;9.03;;;2.67;;
36551;SDS011;22559;54.176;12.102;2023-02-02T06:16:02;12.17;;;3.23;;
36551;SDS011;22559;54.176;12.102;2023-02-02T06:18:28;8.40;;;2.60;;
36551;SDS011;22559;54.176;12.102;2023-02-02T06:20:57;9.27;;;2.30;;
36551;SDS011;22559;54.176;12.102;2023-02-02T06:23:26;13.97;;;2.43;;
36551;SDS011;22559;54.176;12.102;2023-02-02T06:25:52;7.30;;;2.50;;
36551;SDS011;22559;54.176;12.102;2023-02-02T06:28:18;8.47;;;3.07;;
36551;SDS011;22559;54.176;12.102;2023-02-02T06:30:44;15.27;;;3.57;;
36551;SDS011;22559;54.176;12.102;2023-02-02T06:33:09;11.17;;;3.93;;
36551;SDS011;22559;54.176;12.102;2023-02-02T06:35:35;10.67;;;3.30;;
36551;SDS011;22559;54.176;12.102;2023-02-02T06:38:01;19.80;;;3.63;;
36551;SDS011;22559;54.176;12.102;2023-02-02T06:40:27;16.87;;;3.90;;
36551;SDS011;22559;54.176;12.102;2023-02-02T06:43:00;12.57;;;3.43;;
36551;SDS011;22559;54.176;12.102;2023-02-02T06:45:26;10.07;;;3.00;;
36551;SDS011;22559;54.176;12.102;2023-02-02T06:47:53;17.20;;;3.53;;
36551;SDS011;22559;54.176;12.102;2023-02-02T06:50:22;19.03;;;4.00;;
36551;SDS011;22559;54.176;12.102;2023-02-02T06:52:51;8.13;;;3.17;;
36551;SDS011;22559;54.176;12.102;2023-02-02T06:55:17;11.80;;;3.00;;
36551;SDS011;22559;54.176;12.102;2023-02-02T06:57:44;10.77;;;2.67;;
36551;SDS011;22559;54.176;12.102;2023-02-02T07:00:10;11.50;;;4.07;;
36551;SDS011;22559;54.176;12.102;2023-02-02T07:02:36;36.10;;;14.23;;
36551;SDS011;22559;54.176;12.102;2023-02-02T07:05:02;15.13;;;3.97;;
36551;SDS011;22559;54.176;12.102;2023-02-02T07:07:32;21.50;;;4.53;;
36551;SDS011;22559;54.176;12.102;2023-02-02T07:09:59;12.83;;;3.33;;
36551;SDS011;22559;54.176;12.102;2023-02-02T07:12:25;18.30;;;3.93;;
36551;SDS011;22559;54.176;12.102;2023-02-02T07:14:51;16.00;;;3.37;;
36551;SDS011;22559;54.176;12.102;2023-02-02T07:17:17;17.00;;;3.93;;
36551;SDS011;22559;54.176;12.102;2023-02-02T07:19:42;14.07;;;3.50;;
36551;SDS011;22559;54.176;12.102;2023-02-02T07:22:08;14.03;;;3.40;;
36551;SDS011;22559;54.176;12.102;2023-02-02T07:24:34;17.33;;;3.77;;
36551;SDS011;22559;54.176;12.102;2023-02-02T07:27:02;8.03;;;3.53;;
36551;SDS011;22559;54.176;12.102;2023-02-02T07:29:28;10.90;;;3.00;;
36551;SDS011;22559;54.176;12.102;2023-02-02T07:31:54;9.50;;;2.97;;
36551;SDS011;22559;54.176;12.102;2023-02-02T07:34:19;9.27;;;3.00;;
36551;SDS011;22559;54.176;12.102;2023-02-02T07:36:45;12.63;;;3.13;;
36551;SDS011;22559;54.176;12.102;2023-02-02T07:39:11;6.10;;;2.57;;
36551;SDS011;22559;54.176;12.102;2023-02-02T07:41:37;6.17;;;2.07;;
36551;SDS011;22559;54.176;12.102;2023-02-02T07:44:03;4.67;;;1.90;;
36551;SDS011;22559;54.176;12.102;2023-02-02T07:46:29;2.47;;;2.10;;
36551;SDS011;22559;54.176;12.102;2023-02-02T07:48:55;17.27;;;5.80;;
36551;SDS011;22559;54.176;12.102;2023-02-02T07:51:22;26.37;;;12.10;;
36551;SDS011;22559;54.176;12.102;2023-02-02T07:53:49;7.07;;;2.77;;
36551;SDS011;22559;54.176;12.102;2023-02-02T07:56:22;3.03;;;2.37;;
36551;SDS011;22559;54.176;12.102;2023-02-02T07:58:50;8.73;;;2.23;;
36551;SDS011;22559;54.176;12.102;2023-02-02T08:01:17;6.73;;;2.10;;
36551;SDS011;22559;54.176;12.102;2023-02-02T08:03:44;9.20;;;1.93;;
36551;SDS011;22559;54.176;12.102;2023-02-02T08:08:46;5.40;;;2.17;;
36551;SDS011;22559;54.176;12.102;2023-02-02T08:11:12;2.63;;;2.00;;
36551;SDS011;22559;54.176;12.102;2023-02-02T08:13:39;5.43;;;1.83;;
36551;SDS011;22559;54.176;12.102;2023-02-02T08:16:06;5.27;;;2.03;;
36551;SDS011;22559;54.176;12.102;2023-02-02T08:18:32;3.30;;;1.70;;
36551;SDS011;22559;54.176;12.102;2023-02-02T08:20:59;4.47;;;2.00;;
36551;SDS011;22559;54.176;12.102;2023-02-02T08:23:26;4.47;;;1.80;;
36551;SDS011;22559;54.176;12.102;2023-02-02T08:25:52;2.73;;;1.80;;
36551;SDS011;22559;54.176;12.102;2023-02-02T08:28:18;7.27;;;2.07;;
36551;SDS011;22559;54.176;12.102;2023-02-02T08:30:45;4.60;;;1.90;;
36551;SDS011;22559;54.176;12.102;2023-02-02T08:33:11;1.83;;;1.70;;
36551;SDS011;22559;54.176;12.102;2023-02-02T08:35:41;2.20;;;1.70;;
36551;SDS011;22559;54.176;12.102;2023-02-02T08:38:07;6.97;;;1.77;;
36551;SDS011;22559;54.176;12.102;2023-02-02T08:40:34;5.70;;;2.43;;
36551;SDS011;22559;54.176;12.102;2023-02-02T08:42:59;4.67;;;2.23;;
36551;SDS011;22559;54.176;12.102;2023-02-02T08:45:25;7.23;;;2.13;;
36551;SDS011;22559;54.176;12.102;2023-02-02T08:47:51;6.90;;;2.10;;
36551;SDS011;22559;54.176;12.102;2023-02-02T08:50:17;3.90;;;2.53;;
36551;SDS011;22559;54.176;12.102;2023-02-02T08:52:43;6.17;;;2.50;;
36551;SDS011;22559;54.176;12.102;2023-02-02T08:55:09;5.47;;;2.47;;
36551;SDS011;22559;54.176;12.102;2023-02-02T08:57:35;5.20;;;2.27;;
36551;SDS011;22559;54.176;12.102;2023-02-02T09:00:01;7.90;;;2.37;;
36551;SDS011;22559;54.176;12.102;2023-02-02T09:02:30;6.90;;;2.30;;
36551;SDS011;22559;54.176;12.102;2023-02-02T09:04:57;6.93;;;2.20;;
36551;SDS011;22559;54.176;12.102;2023-02-02T09:07:22;5.13;;;2.10;;
36551;SDS011;22559;54.176;12.102;2023-02-02T09:09:48;7.33;;;5.23;;
36551;SDS011;22559;54.176;12.102;2023-02-02T09:12:15;8.70;;;3.90;;
36551;SDS011;22559;54.176;12.102;2023-02-02T09:14:41;5.33;;;2.87;;
36551;SDS011;22559;54.176;12.102;2023-02-02T09:17:07;3.33;;;1.87;;
36551;SDS011;22559;54.176;12.102;2023-02-02T09:19:32;6.30;;;1.87;;
36551;SDS011;22559;54.176;12.102;2023-02-02T09:21:58;3.23;;;2.03;;
36551;SDS011;22559;54.176;12.102;2023-02-02T09:24:24;4.37;;;2.30;;
36551;SDS011;22559;54.176;12.102;2023-02-02T09:26:49;4.43;;;1.97;;
36551;SDS011;22559;54.176;12.102;2023-02-02T09:29:15;1.90;;;1.77;;
36551;SDS011;22559;54.176;12.102;2023-02-02T09:31:44;4.03;;;1.73;;
36551;SDS011;22559;54.176;12.102;2023-02-02T09:34:11;2.13;;;1.50;;
36551;SDS011;22559;54.176;12.102;2023-02-02T09:36:39;3.83;;;1.60;;
36551;SDS011;22559;54.176;12.102;2023-02-02T09:39:05;3.23;;;1.40;;
36551;SDS011;22559;54.176;12.102;2023-02-02T09:52:54;2.97;;;1.60;;
36551;SDS011;22559;54.176;12.102;2023-02-02T09:55:06;4.93;;;1.80;;
36551;SDS011;22559;54.176;12.102;2023-02-02T09:57:44;2.40;;;1.40;;
36551;SDS011;22559;54.176;12.102;2023-02-02T10:00:32;1.47;;;1.37;;
36551;SDS011;22559;54.176;12.102;2023-02-02T10:11:45;3.53;;;1.67;;
36551;SDS011;22559;54.176;12.102;2023-02-02T10:14:17;2.03;;;1.47;;
36551;SDS011;22559;54.176;12.102;2023-02-02T10:16:50;1.63;;;1.40;;
36551;SDS011;22559;54.176;12.102;2023-02-02T10:19:19;1.57;;;1.47;;
36551;SDS011;22559;54.176;12.102;2023-02-02T10:22:11;1.50;;;1.30;;
36551;SDS011;22559;54.176;12.102;2023-02-02T10:24:35;1.73;;;1.40;;
36551;SDS011;22559;54.176;12.102;2023-02-02T10:27:02;2.63;;;1.50;;
36551;SDS011;22559;54.176;12.102;2023-02-02T10:29:52;2.60;;;1.50;;
36551;SDS011;22559;54.176;12.102;2023-02-02T10:32:38;3.50;;;1.70;;
36551;SDS011;22559;54.176;12.102;2023-02-02T10:35:48;2.43;;;1.20;;
36551;SDS011;22559;54.176;12.102;2023-02-02T10:38:23;5.10;;;1.23;;
36551;SDS011;22559;54.176;12.102;2023-02-02T10:41:13;3.17;;;1.40;;
36551;SDS011;22559;54.176;12.102;2023-02-02T10:46:46;2.03;;;1.33;;
36551;SDS011;22559;54.176;12.102;2023-02-02T10:49:29;2.63;;;1.70;;
36551;SDS011;22559;54.176;12.102;2023-02-02T11:02:59;3.60;;;1.20;;
36551;SDS011;22559;54.176;12.102;2023-02-02T11:05:28;5.10;;;1.40;;
36551;SDS011;22559;54.176;12.102;2023-02-02T11:08:48;2.77;;;1.47;;
36551;SDS011;22559;54.176;12.102;2023-02-02T11:16:38;5.20;;;1.37;;
36551;SDS011;22559;54.176;12.102;2023-02-02T11:21:47;2.63;;;1.40;;
36551;SDS011;22559;54.176;12.102;2023-02-02T11:32:16;1.47;;;1.20;;
36551;SDS011;22559;54.176;12.102;2023-02-02T11:37:34;2.00;;;1.30;;
36551;SDS011;22559;54.176;12.102;2023-02-02T11:40:36;1.27;;;1.20;;
36551;SDS011;22559;54.176;12.102;2023-02-02T11:43:03;1.80;;;1.43;;
36551;SDS011;22559;54.176;12.102;2023-02-02T11:45:43;6.10;;;2.40;;
36551;SDS011;22559;54.176;12.102;2023-02-02T11:48:18;7.27;;;2.50;;
36551;SDS011;22559;54.176;12.102;2023-02-02T11:50:53;4.47;;;1.50;;
36551;SDS011;22559;54.176;12.102;2023-02-02T11:56:16;2.70;;;1.27;;
36551;SDS011;22559;54.176;12.102;2023-02-02T11:58:55;3.33;;;1.20;;
36551;SDS011;22559;54.176;12.102;2023-02-02T12:01:24;3.87;;;1.20;;
36551;SDS011;22559;54.176;12.102;2023-02-02T12:03:51;1.63;;;1.37;;
36551;SDS011;22559;54.176;12.102;2023-02-02T12:06:22;5.87;;;1.53;;
36551;SDS011;22559;54.176;12.102;2023-02-02T12:09:08;2.20;;;1.17;;
36551;SDS011;22559;54.176;12.102;2023-02-02T12:31:19;2.70;;;1.27;;
36551;SDS011;22559;54.176;12.102;2023-02-02T12:57:35;2.80;;;1.20;;
36551;SDS011;22559;54.176;12.102;2023-02-02T13:00:24;2.60;;;1.23;;
36551;SDS011;22559;54.176;12.102;2023-02-02T13:11:04;3.97;;;1.33;;
36551;SDS011;22559;54.176;12.102;2023-02-02T13:13:54;4.10;;;1.40;;
36551;SDS011;22559;54.176;12.102;2023-02-02T13:16:24;1.70;;;1.23;;
36551;SDS011;22559;54.176;12.102;2023-02-02T13:18:52;4.23;;;1.20;;
36551;SDS011;22559;54.176;12.102;2023-02-02T13:21:24;2.93;;;1.40;;
36551;SDS011;22559;54.176;12.102;2023-02-02T13:23:54;4.90;;;1.70;;
36551;SDS011;22559;54.176;12.102;2023-02-02T13:26:24;2.17;;;1.27;;
36551;SDS011;22559;54.176;12.102;2023-02-02T13:31:55;9.30;;;3.30;;
36551;SDS011;22559;54.176;12.102;2023-02-02T13:37:19;2.87;;;1.40;;
36551;SDS011;22559;54.176;12.102;2023-02-02T13:40:04;6.07;;;1.40;;
36551;SDS011;22559;54.176;12.102;2023-02-02T13:42:58;5.70;;;1.40;;
36551;SDS011;22559;54.176;12.102;2023-02-02T13:50:39;3.13;;;1.20;;
36551;SDS011;22559;54.176;12.102;2023-02-02T14:01:22;3.43;;;1.50;;
36551;SDS011;22559;54.176;12.102;2023-02-02T14:03:50;1.53;;;1.10;;
36551;SDS011;22559;54.176;12.102;2023-02-02T14:06:20;2.87;;;1.50;;
36551;SDS011;22559;54.176;12.102;2023-02-02T14:09:00;5.00;;;1.50;;
36551;SDS011;22559;54.176;12.102;2023-02-02T14:11:32;2.40;;;1.40;;
36551;SDS011;22559;54.176;12.102;2023-02-02T14:14:16;4.03;;;1.50;;
36551;SDS011;22559;54.176;12.102;2023-02-02T14:24:42;3.83;;;1.37;;
36551;SDS011;22559;54.176;12.102;2023-02-02T14:34:52;5.60;;;1.67;;
36551;SDS011;22559;54.176;12.102;2023-02-02T14:45:44;5.13;;;1.80;;
36551;SDS011;22559;54.176;12.102;2023-02-02T14:53:21;7.07;;;3.00;;
36551;SDS011;22559;54.176;12.102;2023-02-02T14:56:05;3.40;;;2.03;;
36551;SDS011;22559;54.176;12.102;2023-02-02T15:01:24;3.33;;;1.57;;
36551;SDS011;22559;54.176;12.102;2023-02-02T15:03:54;3.97;;;1.80;;
36551;SDS011;22559;54.176;12.102;2023-02-02T15:06:40;3.23;;;2.03;;
36551;SDS011;22559;54.176;12.102;2023-02-02T15:19:55;5.30;;;1.90;;
36551;SDS011;22559;54.176;12.102;2023-02-02T15:25:17;5.00;;;2.43;;
36551;SDS011;22559;54.176;12.102;2023-02-02T15:30:49;3.07;;;1.83;;
36551;SDS011;22559;54.176;12.102;2023-02-02T15:33:32;2.53;;;1.67;;
36551;SDS011;22559;54.176;12.102;2023-02-02T15:36:04;2.43;;;1.80;;
36551;SDS011;22559;54.176;12.102;2023-02-02T15:38:37;5.00;;;2.10;;
36551;SDS011;22559;54.176;12.102;2023-02-02T15:41:15;3.00;;;1.50;;
36551;SDS011;22559;54.176;12.102;2023-02-02T15:43:48;2.37;;;1.80;;
36551;SDS011;22559;54.176;12.102;2023-02-02T15:46:17;3.03;;;1.90;;
36551;SDS011;22559;54.176;12.102;2023-02-02T15:51:52;1.67;;;1.57;;
36551;SDS011;22559;54.176;12.102;2023-02-02T15:54:27;3.33;;;1.60;;
36551;SDS011;22559;54.176;12.102;2023-02-02T15:56:56;6.00;;;2.17;;
36551;SDS011;22559;54.176;12.102;2023-02-02T15:59:25;2.53;;;1.63;;
36551;SDS011;22559;54.176;12.102;2023-02-02T16:02:04;3.53;;;1.73;;
36551;SDS011;22559;54.176;12.102;2023-02-02T16:04:59;4.53;;;2.10;;
36551;SDS011;22559;54.176;12.102;2023-02-02T16:07:31;5.07;;;1.93;;
36551;SDS011;22559;54.176;12.102;2023-02-02T16:10:03;6.00;;;2.00;;
36551;SDS011;22559;54.176;12.102;2023-02-02T16:12:30;3.23;;;1.60;;
36551;SDS011;22559;54.176;12.102;2023-02-02T16:14:56;1.90;;;1.50;;
36551;SDS011;22559;54.176;12.102;2023-02-02T16:17:32;1.70;;;1.50;;
36551;SDS011;22559;54.176;12.102;2023-02-02T16:20:17;3.57;;;2.00;;
36551;SDS011;22559;54.176;12.102;2023-02-02T16:22:43;2.67;;;2.10;;
36551;SDS011;22559;54.176;12.102;2023-02-02T16:25:15;4.30;;;1.90;;
36551;SDS011;22559;54.176;12.102;2023-02-02T16:27:44;4.13;;;1.90;;
36551;SDS011;22559;54.176;12.102;2023-02-02T16:30:16;1.90;;;1.73;;
36551;SDS011;22559;54.176;12.102;2023-02-02T16:32:54;2.70;;;1.50;;
36551;SDS011;22559;54.176;12.102;2023-02-02T16:35:31;1.70;;;1.60;;
36551;SDS011;22559;54.176;12.102;2023-02-02T16:38:19;7.13;;;3.83;;
36551;SDS011;22559;54.176;12.102;2023-02-02T16:40:46;8.13;;;5.63;;
36551;SDS011;22559;54.176;12.102;2023-02-02T16:43:17;6.80;;;3.73;;
36551;SDS011;22559;54.176;12.102;2023-02-02T16:45:48;9.03;;;4.37;;
36551;SDS011;22559;54.176;12.102;2023-02-02T16:48:23;10.47;;;4.53;;
36551;SDS011;22559;54.176;12.102;2023-02-02T16:51:08;14.73;;;6.23;;
36551;SDS011;22559;54.176;12.102;2023-02-02T16:53:39;4.07;;;3.30;;
36551;SDS011;22559;54.176;12.102;2023-02-02T16:56:05;16.23;;;11.10;;
36551;SDS011;22559;54.176;12.102;2023-02-02T16:58:32;16.17;;;11.10;;
36551;SDS011;22559;54.176;12.102;2023-02-02T17:01:07;3.90;;;3.53;;
36551;SDS011;22559;54.176;12.102;2023-02-02T17:03:36;9.07;;;4.87;;
36551;SDS011;22559;54.176;12.102;2023-02-02T17:06:04;6.80;;;4.17;;
36551;SDS011;22559;54.176;12.102;2023-02-02T17:08:32;11.27;;;5.20;;
36551;SDS011;22559;54.176;12.102;2023-02-02T17:11:04;16.03;;;5.60;;
36551;SDS011;22559;54.176;12.102;2023-02-02T17:13:42;6.83;;;5.70;;
36551;SDS011;22559;54.176;12.102;2023-02-02T17:16:12;8.03;;;4.37;;
36551;SDS011;22559;54.176;12.102;2023-02-02T17:18:42;16.33;;;7.43;;
36551;SDS011;22559;54.176;12.102;2023-02-02T17:21:12;6.67;;;3.93;;
36551;SDS011;22559;54.176;12.102;2023-02-02T17:23:40;6.63;;;4.50;;
36551;SDS011;22559;54.176;12.102;2023-02-02T17:26:07;10.13;;;5.13;;
36551;SDS011;22559;54.176;12.102;2023-02-02T17:28:33;6.43;;;5.13;;
36551;SDS011;22559;54.176;12.102;2023-02-02T17:31:02;6.87;;;4.20;;
36551;SDS011;22559;54.176;12.102;2023-02-02T17:33:32;16.10;;;7.40;;
36551;SDS011;22559;54.176;12.102;2023-02-02T17:35:59;31.80;;;13.73;;
36551;SDS011;22559;54.176;12.102;2023-02-02T17:38:25;19.03;;;8.77;;
36551;SDS011;22559;54.176;12.102;2023-02-02T17:40:54;25.10;;;11.80;;
36551;SDS011;22559;54.176;12.102;2023-02-02T17:43:21;10.97;;;6.93;;
36551;SDS011;22559;54.176;12.102;2023-02-02T17:45:46;10.50;;;4.27;;
36551;SDS011;22559;54.176;12.102;2023-02-02T17:48:12;4.83;;;3.57;;
36551;SDS011;22559;54.176;12.102;2023-02-02T17:50:38;4.13;;;3.00;;
36551;SDS011;22559;54.176;12.102;2023-02-02T17:53:07;7.33;;;4.57;;
36551;SDS011;22559;54.176;12.102;2023-02-02T17:55:38;6.07;;;3.60;;
36551;SDS011;22559;54.176;12.102;2023-02-02T17:58:09;4.73;;;3.30;;
36551;SDS011;22559;54.176;12.102;2023-02-02T18:00:37;5.57;;;3.93;;
36551;SDS011;22559;54.176;12.102;2023-02-02T18:03:09;4.83;;;3.70;;
36551;SDS011;22559;54.176;12.102;2023-02-02T18:05:38;5.97;;;3.10;;
36551;SDS011;22559;54.176;12.102;2023-02-02T18:08:04;5.17;;;3.30;;
36551;SDS011;22559;54.176;12.102;2023-02-02T18:10:30;5.03;;;3.43;;
36551;SDS011;22559;54.176;12.102;2023-02-02T18:12:56;4.13;;;2.90;;
36551;SDS011;22559;54.176;12.102;2023-02-02T18:15:21;4.57;;;3.13;;